McGrew, NE (69353)

12:30 PM MDT on September 23, 2014 (GMT -0600)
Gering Nebraska | Change Station
CLOSE
Current Station
Personal Weather Station
Location: Gering, NE
Elevation: 3960 ft
Nearby Weather Stations

Elev 3960 ft 41.82 °N, 103.68 °W | Updated 52 seconds ago

Clear
Clear
76.5 °F
Feels Like 78 °F
N
11.0
Wind Variable Wind from NW
Gusts 17.0 mph

Today
High -- | Low -- °F
--% Chance of Precip.
Yesterday
High -- | Low -- °F
Precip. -- in
6:43 AM 6:50 PM
Waning Crescent, 0% visible
Pressure 29.92 in
Visibility 10.0 miles
Clouds Clear
Heat Index 78 °F
Dew Point 50 °F
Humidity 40%
Rainfall 0.00 in
Snow Depth Not available.
UV 6.8 out of 12
Pollen 5.40 out of 12
Air Quality Not available.
Flu Activity Not available.
METAR KBFF 231753Z AUTO 27010KT 10SM CLR 25/11 A3002 RMK AO2 SLP131 T02500106 10250 20094 58005

More Conditions Fewer Conditions

Pressure 29.92 in
Visibility 10.0 miles
Clouds Clear
Heat Index 78 °F
Dew Point 50 °F
Humidity 40%
Rainfall 0.00 in
Snow Depth Not available.
UV 6.8 out of 12
Pollen 5.40 out of 12
Air Quality Not available.
Flu Activity Not available.
METAR KBFF 231753Z AUTO 27010KT 10SM CLR 25/11 A3002 RMK AO2 SLP131 T02500106 10250 20094 58005

More Conditions Fewer Conditions

10-Day Weather Forecast

Almanac

Astronomy

Sep. 23, 2014 Rise Set
Actual Time 6:43 AM MDT 6:50 PM MDT
Civil Twilight 6:15 AM MDT 7:17 PM MDT
Nautical Twilight 5:42 AM MDT 7:50 PM MDT
Astronomical Twilight 5:09 AM MDT 8:23 PM MDT
Moon 6:09 AM MDT 6:29 PM MDT
Length of Visible Light 13h 02m
Length of Day
12h 06m
Tomorrow will be 2m 48s shorter.
Waning Crescent, 0% of the Moon is Illuminated
Today
Waning Crescent
Sep 24
New
Oct 1
First Quarter
Oct 8
Full
Oct 15
Last Quarter

Today's Extremes

State Highs State Lows

Community

WunderPhotos

Upload Photos

1,755,775 photos uploaded!

Nearby

Snow Depth

Station Depth Elevation
No new snow has been reported.

Earthquake Activity

City Distance Mag. Time & Date
No recent earthquake activity has been reported nearby.
Minimum magnitude displayed is 2.5.

Coastal Water Temperatures

Place Temperature
No Stations Reporting

Nearby Weather Stations